sensor_id;sensor_type;location;lat;lon;timestamp;temperature;humidity
31443;SHT31;18065;55.876;9.830;2023-04-03T00:00:55;20.95;51.53
31443;SHT31;18065;55.876;9.830;2023-04-03T00:03:23;20.94;51.49
31443;SHT31;18065;55.876;9.830;2023-04-03T00:05:52;20.95;51.50
31443;SHT31;18065;55.876;9.830;2023-04-03T00:08:20;20.95;51.45
31443;SHT31;18065;55.876;9.830;2023-04-03T00:10:49;20.95;51.45
31443;SHT31;18065;55.876;9.830;2023-04-03T00:13:20;20.92;51.44
31443;SHT31;18065;55.876;9.830;2023-04-03T00:15:48;20.94;51.43
31443;SHT31;18065;55.876;9.830;2023-04-03T00:18:17;20.91;51.43
31443;SHT31;18065;55.876;9.830;2023-04-03T00:20:45;20.92;51.47
31443;SHT31;18065;55.876;9.830;2023-04-03T00:23:13;20.91;51.47
31443;SHT31;18065;55.876;9.830;2023-04-03T00:25:42;20.94;51.45
31443;SHT31;18065;55.876;9.830;2023-04-03T00:28:10;20.91;51.49
31443;SHT31;18065;55.876;9.830;2023-04-03T00:30:42;20.92;51.54
31443;SHT31;18065;55.876;9.830;2023-04-03T00:33:11;20.90;51.46
31443;SHT31;18065;55.876;9.830;2023-04-03T00:35:39;20.91;51.66
31443;SHT31;18065;55.876;9.830;2023-04-03T00:38:08;20.90;51.61
31443;SHT31;18065;55.876;9.830;2023-04-03T00:40:37;20.91;51.60
31443;SHT31;18065;55.876;9.830;2023-04-03T00:43:08;20.92;51.62
31443;SHT31;18065;55.876;9.830;2023-04-03T00:45:38;20.91;51.63
31443;SHT31;18065;55.876;9.830;2023-04-03T00:48:10;20.90;51.63
31443;SHT31;18065;55.876;9.830;2023-04-03T00:50:40;20.90;51.58
31443;SHT31;18065;55.876;9.830;2023-04-03T00:53:10;20.90;51.66
31443;SHT31;18065;55.876;9.830;2023-04-03T00:55:39;20.91;51.62
31443;SHT31;18065;55.876;9.830;2023-04-03T00:58:09;20.91;51.60
31443;SHT31;18065;55.876;9.830;2023-04-03T01:00:38;20.91;51.62
31443;SHT31;18065;55.876;9.830;2023-04-03T01:03:12;20.87;51.69
31443;SHT31;18065;55.876;9.830;2023-04-03T01:05:40;20.88;51.65
31443;SHT31;18065;55.876;9.830;2023-04-03T01:08:09;20.85;51.66
31443;SHT31;18065;55.876;9.830;2023-04-03T01:10:37;20.87;51.64
31443;SHT31;18065;55.876;9.830;2023-04-03T01:13:17;20.85;51.62
31443;SHT31;18065;55.876;9.830;2023-04-03T01:15:46;20.87;51.61
31443;SHT31;18065;55.876;9.830;2023-04-03T01:18:17;20.90;51.60
31443;SHT31;18065;55.876;9.830;2023-04-03T01:21:05;20.88;51.56
31443;SHT31;18065;55.876;9.830;2023-04-03T01:23:39;20.87;51.67
31443;SHT31;18065;55.876;9.830;2023-04-03T01:26:11;20.84;51.67
31443;SHT31;18065;55.876;9.830;2023-04-03T01:28:39;20.84;51.67
31443;SHT31;18065;55.876;9.830;2023-04-03T01:31:10;20.85;51.69
31443;SHT31;18065;55.876;9.830;2023-04-03T01:33:43;20.84;51.66
31443;SHT31;18065;55.876;9.830;2023-04-03T01:36:13;20.84;51.71
31443;SHT31;18065;55.876;9.830;2023-04-03T01:38:42;20.85;51.77
31443;SHT31;18065;55.876;9.830;2023-04-03T01:41:10;20.84;51.71
31443;SHT31;18065;55.876;9.830;2023-04-03T01:43:39;20.81;51.77
31443;SHT31;18065;55.876;9.830;2023-04-03T01:46:07;20.85;51.77
31443;SHT31;18065;55.876;9.830;2023-04-03T01:48:35;20.85;51.73
31443;SHT31;18065;55.876;9.830;2023-04-03T01:51:06;20.83;51.73
31443;SHT31;18065;55.876;9.830;2023-04-03T01:53:35;20.80;51.73
31443;SHT31;18065;55.876;9.830;2023-04-03T01:56:03;20.80;51.71
31443;SHT31;18065;55.876;9.830;2023-04-03T01:58:32;20.84;51.70
31443;SHT31;18065;55.876;9.830;2023-04-03T02:01:00;20.83;51.68
31443;SHT31;18065;55.876;9.830;2023-04-03T02:03:29;20.80;51.59
31443;SHT31;18065;55.876;9.830;2023-04-03T02:05:57;20.81;51.66
31443;SHT31;18065;55.876;9.830;2023-04-03T02:08:28;20.83;51.64
31443;SHT31;18065;55.876;9.830;2023-04-03T02:10:57;20.81;51.66
31443;SHT31;18065;55.876;9.830;2023-04-03T02:13:25;20.81;51.66
31443;SHT31;18065;55.876;9.830;2023-04-03T02:15:53;20.78;51.65
31443;SHT31;18065;55.876;9.830;2023-04-03T02:18:22;20.80;51.63
31443;SHT31;18065;55.876;9.830;2023-04-03T02:20:50;20.78;51.62
31443;SHT31;18065;55.876;9.830;2023-04-03T02:23:18;20.80;51.59
31443;SHT31;18065;55.876;9.830;2023-04-03T02:25:49;20.78;51.61
31443;SHT31;18065;55.876;9.830;2023-04-03T02:28:18;20.80;51.60
31443;SHT31;18065;55.876;9.830;2023-04-03T02:30:46;20.76;51.62
31443;SHT31;18065;55.876;9.830;2023-04-03T02:33:14;20.78;51.59
31443;SHT31;18065;55.876;9.830;2023-04-03T02:35:43;20.73;51.66
31443;SHT31;18065;55.876;9.830;2023-04-03T02:38:18;20.78;51.66
31443;SHT31;18065;55.876;9.830;2023-04-03T02:40:49;20.76;51.72
31443;SHT31;18065;55.876;9.830;2023-04-03T02:43:17;20.74;51.70
31443;SHT31;18065;55.876;9.830;2023-04-03T02:45:46;20.74;51.71
31443;SHT31;18065;55.876;9.830;2023-04-03T02:48:14;20.77;51.71
31443;SHT31;18065;55.876;9.830;2023-04-03T02:50:42;20.76;51.73
31443;SHT31;18065;55.876;9.830;2023-04-03T02:53:11;20.74;51.73
31443;SHT31;18065;55.876;9.830;2023-04-03T02:55:40;20.77;51.76
31443;SHT31;18065;55.876;9.830;2023-04-03T02:58:11;20.77;51.75
31443;SHT31;18065;55.876;9.830;2023-04-03T03:00:39;20.74;51.76
31443;SHT31;18065;55.876;9.830;2023-04-03T03:03:08;20.77;51.69
31443;SHT31;18065;55.876;9.830;2023-04-03T03:05:36;20.78;51.67
31443;SHT31;18065;55.876;9.830;2023-04-03T03:08:04;20.76;51.65
31443;SHT31;18065;55.876;9.830;2023-04-03T03:10:33;20.77;51.68
31443;SHT31;18065;55.876;9.830;2023-04-03T03:13:01;20.77;51.65
31443;SHT31;18065;55.876;9.830;2023-04-03T03:15:32;20.74;51.67
31443;SHT31;18065;55.876;9.830;2023-04-03T03:18:00;20.76;51.69
31443;SHT31;18065;55.876;9.830;2023-04-03T03:20:29;20.76;51.70
31443;SHT31;18065;55.876;9.830;2023-04-03T03:22:57;20.73;51.68
31443;SHT31;18065;55.876;9.830;2023-04-03T03:25:25;20.73;51.69
31443;SHT31;18065;55.876;9.830;2023-04-03T03:27:54;20.76;51.67
31443;SHT31;18065;55.876;9.830;2023-04-03T03:30:22;20.76;51.62
31443;SHT31;18065;55.876;9.830;2023-04-03T03:32:53;20.73;51.65
31443;SHT31;18065;55.876;9.830;2023-04-03T03:35:22;20.76;51.66
31443;SHT31;18065;55.876;9.830;2023-04-03T03:37:50;20.73;51.71
31443;SHT31;18065;55.876;9.830;2023-04-03T03:40:19;20.71;51.65
31443;SHT31;18065;55.876;9.830;2023-04-03T03:42:47;20.73;51.64
31443;SHT31;18065;55.876;9.830;2023-04-03T03:45:15;20.73;51.69
31443;SHT31;18065;55.876;9.830;2023-04-03T03:47:44;20.71;51.69
31443;SHT31;18065;55.876;9.830;2023-04-03T03:50:15;20.73;51.71
31443;SHT31;18065;55.876;9.830;2023-04-03T03:52:43;20.70;51.68
31443;SHT31;18065;55.876;9.830;2023-04-03T03:55:12;20.71;51.67
31443;SHT31;18065;55.876;9.830;2023-04-03T03:57:40;20.70;51.69
31443;SHT31;18065;55.876;9.830;2023-04-03T04:00:09;20.70;51.73
31443;SHT31;18065;55.876;9.830;2023-04-03T04:02:38;20.69;51.69
31443;SHT31;18065;55.876;9.830;2023-04-03T04:05:06;20.70;51.67
31443;SHT31;18065;55.876;9.830;2023-04-03T04:07:37;20.67;51.72
31443;SHT31;18065;55.876;9.830;2023-04-03T04:10:06;20.69;51.69
31443;SHT31;18065;55.876;9.830;2023-04-03T04:12:35;20.67;51.73
31443;SHT31;18065;55.876;9.830;2023-04-03T04:15:03;20.69;51.71
31443;SHT31;18065;55.876;9.830;2023-04-03T04:17:32;20.66;51.69
31443;SHT31;18065;55.876;9.830;2023-04-03T04:20:00;20.66;51.71
31443;SHT31;18065;55.876;9.830;2023-04-03T04:22:30;20.66;51.68
31443;SHT31;18065;55.876;9.830;2023-04-03T04:25:01;20.66;51.67
31443;SHT31;18065;55.876;9.830;2023-04-03T04:27:29;20.64;51.65
31443;SHT31;18065;55.876;9.830;2023-04-03T04:29:58;20.64;51.65
31443;SHT31;18065;55.876;9.830;2023-04-03T04:32:26;20.66;51.58
31443;SHT31;18065;55.876;9.830;2023-04-03T04:34:54;20.61;51.57
31443;SHT31;18065;55.876;9.830;2023-04-03T04:37:23;20.63;51.54
31443;SHT31;18065;55.876;9.830;2023-04-03T04:39:51;20.67;51.53
31443;SHT31;18065;55.876;9.830;2023-04-03T04:42:22;20.64;51.51
31443;SHT31;18065;55.876;9.830;2023-04-03T04:44:50;20.64;51.57
31443;SHT31;18065;55.876;9.830;2023-04-03T04:47:19;20.63;51.54
31443;SHT31;18065;55.876;9.830;2023-04-03T04:49:47;20.61;51.54
31443;SHT31;18065;55.876;9.830;2023-04-03T04:52:16;20.63;51.51
31443;SHT31;18065;55.876;9.830;2023-04-03T04:54:44;20.63;51.64
31443;SHT31;18065;55.876;9.830;2023-04-03T04:57:12;20.66;51.67
31443;SHT31;18065;55.876;9.830;2023-04-03T04:59:43;20.66;51.61
31443;SHT31;18065;55.876;9.830;2023-04-03T05:02:12;20.61;51.50
31443;SHT31;18065;55.876;9.830;2023-04-03T05:04:40;20.64;51.49
31443;SHT31;18065;55.876;9.830;2023-04-03T05:07:08;20.64;51.38
31443;SHT31;18065;55.876;9.830;2023-04-03T05:09:37;20.63;51.27
31443;SHT31;18065;55.876;9.830;2023-04-03T05:12:07;20.64;51.11
31443;SHT31;18065;55.876;9.830;2023-04-03T05:14:35;20.64;51.08
31443;SHT31;18065;55.876;9.830;2023-04-03T05:17:06;20.66;51.13
31443;SHT31;18065;55.876;9.830;2023-04-03T05:19:35;20.64;51.25
31443;SHT31;18065;55.876;9.830;2023-04-03T05:22:03;20.66;51.26
31443;SHT31;18065;55.876;9.830;2023-04-03T05:24:31;20.69;51.27
31443;SHT31;18065;55.876;9.830;2023-04-03T05:27:00;20.70;51.26
31443;SHT31;18065;55.876;9.830;2023-04-03T05:29:28;20.71;51.19
31443;SHT31;18065;55.876;9.830;2023-04-03T05:31:57;20.71;51.15
31443;SHT31;18065;55.876;9.830;2023-04-03T05:34:27;20.73;51.10
31443;SHT31;18065;55.876;9.830;2023-04-03T05:36:56;20.74;51.08
31443;SHT31;18065;55.876;9.830;2023-04-03T05:39:24;20.73;51.07
31443;SHT31;18065;55.876;9.830;2023-04-03T05:41:53;20.71;50.94
31443;SHT31;18065;55.876;9.830;2023-04-03T05:44:21;20.71;50.93
31443;SHT31;18065;55.876;9.830;2023-04-03T05:46:50;20.71;50.82
31443;SHT31;18065;55.876;9.830;2023-04-03T05:49:18;20.73;50.80
31443;SHT31;18065;55.876;9.830;2023-04-03T05:51:49;20.71;50.79
31443;SHT31;18065;55.876;9.830;2023-04-03T05:54:18;20.71;50.76
31443;SHT31;18065;55.876;9.830;2023-04-03T05:56:48;20.71;50.72
31443;SHT31;18065;55.876;9.830;2023-04-03T05:59:16;20.73;50.72
31443;SHT31;18065;55.876;9.830;2023-04-03T06:01:45;20.71;50.72
31443;SHT31;18065;55.876;9.830;2023-04-03T06:04:13;20.74;50.73
31443;SHT31;18065;55.876;9.830;2023-04-03T06:06:46;20.74;50.74
31443;SHT31;18065;55.876;9.830;2023-04-03T06:09:17;20.74;50.75
31443;SHT31;18065;55.876;9.830;2023-04-03T06:11:46;20.74;50.68
31443;SHT31;18065;55.876;9.830;2023-04-03T06:14:15;20.77;50.57
31443;SHT31;18065;55.876;9.830;2023-04-03T06:16:43;20.77;50.55
31443;SHT31;18065;55.876;9.830;2023-04-03T06:19:12;20.77;50.49
31443;SHT31;18065;55.876;9.830;2023-04-03T06:21:41;20.77;50.42
31443;SHT31;18065;55.876;9.830;2023-04-03T06:24:09;20.76;50.41
31443;SHT31;18065;55.876;9.830;2023-04-03T06:26:43;20.78;50.36
31443;SHT31;18065;55.876;9.830;2023-04-03T06:29:11;20.78;50.30
31443;SHT31;18065;55.876;9.830;2023-04-03T06:31:39;20.77;50.27
31443;SHT31;18065;55.876;9.830;2023-04-03T06:34:08;20.76;50.29
31443;SHT31;18065;55.876;9.830;2023-04-03T06:36:37;20.80;50.32
31443;SHT31;18065;55.876;9.830;2023-04-03T06:39:05;20.76;50.33
31443;SHT31;18065;55.876;9.830;2023-04-03T06:41:33;20.77;50.33
31443;SHT31;18065;55.876;9.830;2023-04-03T06:44:04;20.76;50.38
31443;SHT31;18065;55.876;9.830;2023-04-03T06:46:36;20.74;50.34
31443;SHT31;18065;55.876;9.830;2023-04-03T06:49:05;20.76;50.41
31443;SHT31;18065;55.876;9.830;2023-04-03T06:51:34;20.76;50.43
31443;SHT31;18065;55.876;9.830;2023-04-03T06:54:04;20.76;50.38
31443;SHT31;18065;55.876;9.830;2023-04-03T06:56:33;20.77;50.43
31443;SHT31;18065;55.876;9.830;2023-04-03T06:59:02;20.80;50.41
31443;SHT31;18065;55.876;9.830;2023-04-03T07:01:32;20.78;50.42
31443;SHT31;18065;55.876;9.830;2023-04-03T07:04:01;20.80;50.44
31443;SHT31;18065;55.876;9.830;2023-04-03T07:06:29;20.83;50.19
31443;SHT31;18065;55.876;9.830;2023-04-03T07:08:59;20.88;50.27
31443;SHT31;18065;55.876;9.830;2023-04-03T07:11:28;20.90;50.37
31443;SHT31;18065;55.876;9.830;2023-04-03T07:13:56;20.88;50.59
31443;SHT31;18065;55.876;9.830;2023-04-03T07:16:24;20.90;50.94
31443;SHT31;18065;55.876;9.830;2023-04-03T07:18:55;20.91;51.04
31443;SHT31;18065;55.876;9.830;2023-04-03T07:21:24;20.92;51.08
31443;SHT31;18065;55.876;9.830;2023-04-03T07:23:53;20.95;51.11
31443;SHT31;18065;55.876;9.830;2023-04-03T07:26:23;21.04;51.08
31443;SHT31;18065;55.876;9.830;2023-04-03T07:28:52;21.14;50.74
31443;SHT31;18065;55.876;9.830;2023-04-03T07:31:20;21.18;50.37
31443;SHT31;18065;55.876;9.830;2023-04-03T07:33:49;21.19;49.96
31443;SHT31;18065;55.876;9.830;2023-04-03T07:36:20;21.21;49.93
31443;SHT31;18065;55.876;9.830;2023-04-03T07:38:49;21.21;50.03
31443;SHT31;18065;55.876;9.830;2023-04-03T07:41:18;21.23;50.07
31443;SHT31;18065;55.876;9.830;2023-04-03T07:43:48;21.22;50.04
31443;SHT31;18065;55.876;9.830;2023-04-03T07:46:18;21.22;50.02
31443;SHT31;18065;55.876;9.830;2023-04-03T07:48:46;21.21;50.08
31443;SHT31;18065;55.876;9.830;2023-04-03T07:51:14;21.22;50.18
31443;SHT31;18065;55.876;9.830;2023-04-03T07:53:45;21.23;50.15
31443;SHT31;18065;55.876;9.830;2023-04-03T07:56:14;21.23;50.14
31443;SHT31;18065;55.876;9.830;2023-04-03T07:58:42;21.22;50.12
31443;SHT31;18065;55.876;9.830;2023-04-03T08:01:11;21.22;50.03
31443;SHT31;18065;55.876;9.830;2023-04-03T08:03:39;21.22;49.81
31443;SHT31;18065;55.876;9.830;2023-04-03T08:06:08;21.18;49.87
31443;SHT31;18065;55.876;9.830;2023-04-03T08:08:37;21.21;49.83
31443;SHT31;18065;55.876;9.830;2023-04-03T08:11:09;21.19;49.92
31443;SHT31;18065;55.876;9.830;2023-04-03T08:13:38;21.19;50.09
31443;SHT31;18065;55.876;9.830;2023-04-03T08:16:10;21.22;50.11
31443;SHT31;18065;55.876;9.830;2023-04-03T08:18:38;21.25;50.14
31443;SHT31;18065;55.876;9.830;2023-04-03T08:21:07;21.29;50.14
31443;SHT31;18065;55.876;9.830;2023-04-03T08:23:35;21.27;50.10
31443;SHT31;18065;55.876;9.830;2023-04-03T08:26:11;21.29;50.02
31443;SHT31;18065;55.876;9.830;2023-04-03T08:28:39;21.28;49.86
31443;SHT31;18065;55.876;9.830;2023-04-03T08:31:09;21.27;49.62
31443;SHT31;18065;55.876;9.830;2023-04-03T08:33:39;21.28;49.46
31443;SHT31;18065;55.876;9.830;2023-04-03T08:36:08;21.28;49.29
31443;SHT31;18065;55.876;9.830;2023-04-03T08:38:43;21.32;49.00
31443;SHT31;18065;55.876;9.830;2023-04-03T08:41:16;21.31;48.80
31443;SHT31;18065;55.876;9.830;2023-04-03T08:43:54;21.32;48.54
31443;SHT31;18065;55.876;9.830;2023-04-03T08:46:26;21.32;48.23
31443;SHT31;18065;55.876;9.830;2023-04-03T08:49:01;21.31;48.11
31443;SHT31;18065;55.876;9.830;2023-04-03T08:51:29;21.32;47.83
31443;SHT31;18065;55.876;9.830;2023-04-03T08:53:58;21.34;47.66
31443;SHT31;18065;55.876;9.830;2023-04-03T08:56:30;21.32;47.48
31443;SHT31;18065;55.876;9.830;2023-04-03T08:58:59;21.35;47.41
31443;SHT31;18065;55.876;9.830;2023-04-03T09:01:30;21.31;47.39
31443;SHT31;18065;55.876;9.830;2023-04-03T09:04:01;21.29;47.40
31443;SHT31;18065;55.876;9.830;2023-04-03T09:06:32;21.31;47.43
31443;SHT31;18065;55.876;9.830;2023-04-03T09:09:05;21.32;47.45
31443;SHT31;18065;55.876;9.830;2023-04-03T09:11:40;21.32;47.47
31443;SHT31;18065;55.876;9.830;2023-04-03T09:14:12;21.31;47.52
31443;SHT31;18065;55.876;9.830;2023-04-03T09:16:43;21.34;47.50
31443;SHT31;18065;55.876;9.830;2023-04-03T09:19:16;21.35;47.54
31443;SHT31;18065;55.876;9.830;2023-04-03T09:21:49;21.35;47.60
31443;SHT31;18065;55.876;9.830;2023-04-03T09:24:17;21.35;47.64
31443;SHT31;18065;55.876;9.830;2023-04-03T09:26:49;21.35;47.64
31443;SHT31;18065;55.876;9.830;2023-04-03T09:29:20;21.34;47.68
31443;SHT31;18065;55.876;9.830;2023-04-03T09:31:50;21.34;47.78
31443;SHT31;18065;55.876;9.830;2023-04-03T09:34:21;21.32;47.93
31443;SHT31;18065;55.876;9.830;2023-04-03T09:36:52;21.34;48.05
31443;SHT31;18065;55.876;9.830;2023-04-03T09:39:21;21.35;48.07
31443;SHT31;18065;55.876;9.830;2023-04-03T09:41:57;21.36;47.86
31443;SHT31;18065;55.876;9.830;2023-04-03T09:44:27;21.41;47.60
31443;SHT31;18065;55.876;9.830;2023-04-03T09:46:56;21.41;47.38
31443;SHT31;18065;55.876;9.830;2023-04-03T09:49:24;21.38;47.34
31443;SHT31;18065;55.876;9.830;2023-04-03T09:51:53;21.41;47.22
31443;SHT31;18065;55.876;9.830;2023-04-03T09:57:12;21.39;47.20
31443;SHT31;18065;55.876;9.830;2023-04-03T09:59:42;21.42;47.28
31443;SHT31;18065;55.876;9.830;2023-04-03T10:02:28;21.41;47.30
31443;SHT31;18065;55.876;9.830;2023-04-03T10:04:59;21.45;47.30
31443;SHT31;18065;55.876;9.830;2023-04-03T10:07:28;21.45;47.36
31443;SHT31;18065;55.876;9.830;2023-04-03T10:09:58;21.46;47.41
31443;SHT31;18065;55.876;9.830;2023-04-03T10:12:29;21.46;47.45
31443;SHT31;18065;55.876;9.830;2023-04-03T10:14:58;21.48;47.52
31443;SHT31;18065;55.876;9.830;2023-04-03T10:17:37;21.48;47.54
31443;SHT31;18065;55.876;9.830;2023-04-03T10:20:17;21.43;47.62
31443;SHT31;18065;55.876;9.830;2023-04-03T10:22:54;21.46;47.68
31443;SHT31;18065;55.876;9.830;2023-04-03T10:25:25;21.48;47.75
31443;SHT31;18065;55.876;9.830;2023-04-03T10:27:58;21.48;47.75
31443;SHT31;18065;55.876;9.830;2023-04-03T10:30:40;21.50;47.78
31443;SHT31;18065;55.876;9.830;2023-04-03T10:33:18;21.46;47.82
31443;SHT31;18065;55.876;9.830;2023-04-03T10:35:49;21.50;47.85
31443;SHT31;18065;55.876;9.830;2023-04-03T10:38:22;21.50;47.93
31443;SHT31;18065;55.876;9.830;2023-04-03T10:40:54;21.48;48.03
31443;SHT31;18065;55.876;9.830;2023-04-03T10:43:29;21.52;48.17
31443;SHT31;18065;55.876;9.830;2023-04-03T10:46:02;21.49;48.29
31443;SHT31;18065;55.876;9.830;2023-04-03T10:48:35;21.50;48.49
31443;SHT31;18065;55.876;9.830;2023-04-03T10:51:08;21.50;48.55
31443;SHT31;18065;55.876;9.830;2023-04-03T10:53:43;21.52;48.62
31443;SHT31;18065;55.876;9.830;2023-04-03T10:56:13;21.53;48.69
31443;SHT31;18065;55.876;9.830;2023-04-03T10:58:48;21.53;48.82
31443;SHT31;18065;55.876;9.830;2023-04-03T11:01:16;21.55;48.81
31443;SHT31;18065;55.876;9.830;2023-04-03T11:03:47;21.56;48.93
31443;SHT31;18065;55.876;9.830;2023-04-03T11:06:18;21.58;48.96
31443;SHT31;18065;55.876;9.830;2023-04-03T11:08:49;21.55;48.85
31443;SHT31;18065;55.876;9.830;2023-04-03T11:11:20;21.56;49.00
31443;SHT31;18065;55.876;9.830;2023-04-03T11:13:54;21.58;49.06
31443;SHT31;18065;55.876;9.830;2023-04-03T11:16:23;21.56;49.09
31443;SHT31;18065;55.876;9.830;2023-04-03T11:18:52;21.58;49.24
31443;SHT31;18065;55.876;9.830;2023-04-03T11:21:23;21.59;49.24
31443;SHT31;18065;55.876;9.830;2023-04-03T11:23:54;21.59;49.28
31443;SHT31;18065;55.876;9.830;2023-04-03T11:26:26;21.59;49.26
31443;SHT31;18065;55.876;9.830;2023-04-03T11:28:58;21.60;49.30
31443;SHT31;18065;55.876;9.830;2023-04-03T11:34:16;21.59;49.34
31443;SHT31;18065;55.876;9.830;2023-04-03T11:36:47;21.60;49.34
31443;SHT31;18065;55.876;9.830;2023-04-03T11:39:19;21.59;49.37
31443;SHT31;18065;55.876;9.830;2023-04-03T11:41:48;21.59;49.39
31443;SHT31;18065;55.876;9.830;2023-04-03T11:44:32;21.60;49.41
31443;SHT31;18065;55.876;9.830;2023-04-03T11:47:02;21.60;49.44
31443;SHT31;18065;55.876;9.830;2023-04-03T11:52:14;21.60;49.46
31443;SHT31;18065;55.876;9.830;2023-04-03T11:55:35;21.65;49.52
31443;SHT31;18065;55.876;9.830;2023-04-03T11:58:13;21.60;49.50
31443;SHT31;18065;55.876;9.830;2023-04-03T12:00:49;21.65;49.55
31443;SHT31;18065;55.876;9.830;2023-04-03T12:08:46;21.65;49.69
31443;SHT31;18065;55.876;9.830;2023-04-03T12:11:19;21.66;49.72
31443;SHT31;18065;55.876;9.830;2023-04-03T12:14:12;21.63;49.74
31443;SHT31;18065;55.876;9.830;2023-04-03T12:16:42;21.66;49.74
31443;SHT31;18065;55.876;9.830;2023-04-03T12:22:09;21.66;49.79
31443;SHT31;18065;55.876;9.830;2023-04-03T12:24:38;21.66;49.84
31443;SHT31;18065;55.876;9.830;2023-04-03T12:27:16;21.67;49.84
31443;SHT31;18065;55.876;9.830;2023-04-03T12:29:50;21.65;49.82
31443;SHT31;18065;55.876;9.830;2023-04-03T12:32:22;21.69;49.86
31443;SHT31;18065;55.876;9.830;2023-04-03T12:34:59;21.67;49.89
31443;SHT31;18065;55.876;9.830;2023-04-03T12:37:39;21.69;49.99
31443;SHT31;18065;55.876;9.830;2023-04-03T12:40:09;21.70;49.99
31443;SHT31;18065;55.876;9.830;2023-04-03T12:42:51;21.70;50.02
31443;SHT31;18065;55.876;9.830;2023-04-03T12:45:24;21.67;50.05
31443;SHT31;18065;55.876;9.830;2023-04-03T12:47:53;21.71;50.11
31443;SHT31;18065;55.876;9.830;2023-04-03T12:50:22;21.71;50.10
31443;SHT31;18065;55.876;9.830;2023-04-03T12:52:54;21.67;50.16
31443;SHT31;18065;55.876;9.830;2023-04-03T12:55:23;21.73;50.17
31443;SHT31;18065;55.876;9.830;2023-04-03T12:57:52;21.73;50.22
31443;SHT31;18065;55.876;9.830;2023-04-03T13:00:27;21.73;50.24
31443;SHT31;18065;55.876;9.830;2023-04-03T13:02:56;21.76;50.32
31443;SHT31;18065;55.876;9.830;2023-04-03T13:05:25;21.71;50.32
31443;SHT31;18065;55.876;9.830;2023-04-03T13:07:54;21.73;50.41
31443;SHT31;18065;55.876;9.830;2023-04-03T13:10:24;21.73;50.41
31443;SHT31;18065;55.876;9.830;2023-04-03T13:12:54;21.74;50.46
31443;SHT31;18065;55.876;9.830;2023-04-03T13:15:26;21.76;50.47
31443;SHT31;18065;55.876;9.830;2023-04-03T13:17:55;21.74;50.53
31443;SHT31;18065;55.876;9.830;2023-04-03T13:20:24;21.77;50.53
31443;SHT31;18065;55.876;9.830;2023-04-03T13:22:55;21.77;50.65
31443;SHT31;18065;55.876;9.830;2023-04-03T13:25:25;21.77;50.66
31443;SHT31;18065;55.876;9.830;2023-04-03T13:27:54;21.77;50.67
31443;SHT31;18065;55.876;9.830;2023-04-03T13:30:28;21.80;50.69
31443;SHT31;18065;55.876;9.830;2023-04-03T13:32:58;21.79;50.66
31443;SHT31;18065;55.876;9.830;2023-04-03T13:35:29;21.79;50.74
31443;SHT31;18065;55.876;9.830;2023-04-03T13:37:59;21.79;50.79
31443;SHT31;18065;55.876;9.830;2023-04-03T13:40:28;21.81;50.80
31443;SHT31;18065;55.876;9.830;2023-04-03T13:43:01;21.83;50.82
31443;SHT31;18065;55.876;9.830;2023-04-03T13:45:33;21.83;50.84
31443;SHT31;18065;55.876;9.830;2023-04-03T13:48:09;21.83;50.90
31443;SHT31;18065;55.876;9.830;2023-04-03T13:50:55;21.83;50.96
31443;SHT31;18065;55.876;9.830;2023-04-03T13:53:24;21.84;50.96
31443;SHT31;18065;55.876;9.830;2023-04-03T13:55:55;21.86;51.00
31443;SHT31;18065;55.876;9.830;2023-04-03T13:58:24;21.87;51.00
31443;SHT31;18065;55.876;9.830;2023-04-03T14:00:58;21.86;51.02
31443;SHT31;18065;55.876;9.830;2023-04-03T14:03:29;21.87;51.11
31443;SHT31;18065;55.876;9.830;2023-04-03T14:05:58;21.87;51.15
31443;SHT31;18065;55.876;9.830;2023-04-03T14:08:27;21.89;51.15
31443;SHT31;18065;55.876;9.830;2023-04-03T14:10:55;21.86;51.14
31443;SHT31;18065;55.876;9.830;2023-04-03T14:13:23;21.86;51.19
31443;SHT31;18065;55.876;9.830;2023-04-03T14:15:52;21.92;51.20
31443;SHT31;18065;55.876;9.830;2023-04-03T14:18:23;21.92;51.29
31443;SHT31;18065;55.876;9.830;2023-04-03T14:20:51;21.90;51.28
31443;SHT31;18065;55.876;9.830;2023-04-03T14:23:19;21.92;51.34
31443;SHT31;18065;55.876;9.830;2023-04-03T14:25:48;21.92;51.36
31443;SHT31;18065;55.876;9.830;2023-04-03T14:28:17;21.96;51.38
31443;SHT31;18065;55.876;9.830;2023-04-03T14:30:46;21.93;51.40
31443;SHT31;18065;55.876;9.830;2023-04-03T14:33:16;21.93;51.46
31443;SHT31;18065;55.876;9.830;2023-04-03T14:35:47;21.94;51.48
31443;SHT31;18065;55.876;9.830;2023-04-03T14:38:20;21.96;51.58
31443;SHT31;18065;55.876;9.830;2023-04-03T14:40:49;21.96;51.64
31443;SHT31;18065;55.876;9.830;2023-04-03T14:43:17;21.96;51.68
31443;SHT31;18065;55.876;9.830;2023-04-03T14:45:46;21.94;51.70
31443;SHT31;18065;55.876;9.830;2023-04-03T14:48:15;22.00;51.75
31443;SHT31;18065;55.876;9.830;2023-04-03T14:50:48;21.98;51.77
31443;SHT31;18065;55.876;9.830;2023-04-03T14:53:17;22.00;51.89
31443;SHT31;18065;55.876;9.830;2023-04-03T14:55:48;22.01;51.91
31443;SHT31;18065;55.876;9.830;2023-04-03T14:58:17;22.00;51.95
31443;SHT31;18065;55.876;9.830;2023-04-03T15:00:45;22.03;51.98
31443;SHT31;18065;55.876;9.830;2023-04-03T15:03:14;22.01;52.03
31443;SHT31;18065;55.876;9.830;2023-04-03T15:05:43;22.03;52.13
31443;SHT31;18065;55.876;9.830;2023-04-03T15:08:16;22.03;52.11
31443;SHT31;18065;55.876;9.830;2023-04-03T15:10:45;22.03;52.12
31443;SHT31;18065;55.876;9.830;2023-04-03T15:13:13;22.06;52.19
31443;SHT31;18065;55.876;9.830;2023-04-03T15:15:42;22.06;52.15
31443;SHT31;18065;55.876;9.830;2023-04-03T15:18:12;22.06;52.19
31443;SHT31;18065;55.876;9.830;2023-04-03T15:20:42;22.07;52.24
31443;SHT31;18065;55.876;9.830;2023-04-03T15:23:10;22.06;52.30
31443;SHT31;18065;55.876;9.830;2023-04-03T15:25:43;22.08;52.28
31443;SHT31;18065;55.876;9.830;2023-04-03T15:28:15;22.07;52.31
31443;SHT31;18065;55.876;9.830;2023-04-03T15:30:46;22.10;52.34
31443;SHT31;18065;55.876;9.830;2023-04-03T15:33:14;22.10;52.32
31443;SHT31;18065;55.876;9.830;2023-04-03T15:35:43;22.08;52.34
31443;SHT31;18065;55.876;9.830;2023-04-03T15:38:12;22.08;52.49
31443;SHT31;18065;55.876;9.830;2023-04-03T15:40:43;22.08;52.66
31443;SHT31;18065;55.876;9.830;2023-04-03T15:43:12;22.13;52.58
31443;SHT31;18065;55.876;9.830;2023-04-03T15:45:41;22.17;52.53
31443;SHT31;18065;55.876;9.830;2023-04-03T15:48:09;22.17;52.40
31443;SHT31;18065;55.876;9.830;2023-04-03T15:50:38;22.17;52.27
31443;SHT31;18065;55.876;9.830;2023-04-03T15:53:06;22.18;52.13
31443;SHT31;18065;55.876;9.830;2023-04-03T15:55:35;22.18;51.98
31443;SHT31;18065;55.876;9.830;2023-04-03T15:58:06;22.18;51.73
31443;SHT31;18065;55.876;9.830;2023-04-03T16:00:36;22.20;51.52
31443;SHT31;18065;55.876;9.830;2023-04-03T16:03:05;22.22;51.29
31443;SHT31;18065;55.876;9.830;2023-04-03T16:05:34;22.25;51.01